Brenham, TX (77833)

12:46 PM CST on February 20, 2017 (GMT -0600)
Walnut Bend | | Change Station

Elev 318 ft 30.15 °N, 96.38 °W | Updated 21 seconds ago

Rain
Rain
61.1 °F
Feels Like 61.1 °F
N
2.0
Wind Variable Wind from ENE

Today
High -- | Low -- °F
--% Chance of Precip.
Yesterday
High -- | Low -- °F
Precip. -- in
Pressure 29.98 in
Visibility 10.0 miles
Clouds Scattered Clouds 1200 ft
Mostly Cloudy 9500 ft
Overcast 12000 ft
Dew Point 58 °F
Humidity 91%
Rainfall 2.25 in
Snow Depth Not available.
7:00 AM 6:18 PM
Waning Crescent, 32% visible
METAR K11R 201835Z AUTO 18004KT 10SM -RA SCT012 BKN095 OVC120 17/16 A2998 RMK AO2 T01710163
Pressure 29.98 in
Visibility 10.0 miles
Clouds Scattered Clouds 1200 ft
Mostly Cloudy 9500 ft
Overcast 12000 ft
Dew Point 58 °F
Humidity 91%
Rainfall 2.25 in
Snow Depth Not available.
7:00 AM 6:18 PM
Waning Crescent, 32% visible
METAR K11R 201835Z AUTO 18004KT 10SM -RA SCT012 BKN095 OVC120 17/16 A2998 RMK AO2 T01710163

Get Your Daily Forecast Email!

Thanks for signing up!

Be on the lookout for a verification email in your inbox.

You'll start receiving the daily forecast at 8 AM.

×

10-Day Weather Forecast

Almanac

Astronomy

Feb. 20, 2017 Rise Set
Actual Time
Civil Twilight
Nautical Twilight
Astronomical Twilight
Moon
Length of Visible Light
Length of Day
Tomorrow will be .
, % of the Moon is Illuminated

Today's Extremes

State Highs State Lows

Community

WunderPhotos

Upload Photos

1,962,540 photos uploaded!

WunderBlog® & News

Nearby

Air Quality

  Air Quality AQ Index Pollutant
Not available.

Snow Depth

Station Depth Elevation

Earthquake Activity

City Distance Mag. Time & Date
Minimum magnitude displayed is 2.5.

Coastal Water Temperatures

Place Temperature

Stations

Nearby Weather Stations

Station Location Temp. Windchill Dew Point Humidity Wind Precip. Elev Updated Type
                   

Watches & Warnings

There are currently no watches in effect.